sensor_id;sensor_type;location;lat;lon;timestamp;pressure;altitude;pressure_sealevel;temperature;humidity
39105;BME280;46464;51.154;13.812;2022-07-29T00:02:27;99505.22;;;14.09;62.04
39105;BME280;46464;51.154;13.812;2022-07-29T00:04:54;99494.06;;;13.69;62.61
39105;BME280;46464;51.154;13.812;2022-07-29T00:07:20;99496.84;;;13.67;62.26
39105;BME280;46464;51.154;13.812;2022-07-29T00:09:47;99509.56;;;13.65;61.95
39105;BME280;46464;51.154;13.812;2022-07-29T00:12:19;99509.06;;;13.59;62.00
39105;BME280;46464;51.154;13.812;2022-07-29T00:14:52;99505.78;;;13.37;62.74
39105;BME280;46464;51.154;13.812;2022-07-29T00:17:20;99498.00;;;13.31;62.87
39105;BME280;46464;51.154;13.812;2022-07-29T00:19:46;99510.69;;;13.29;63.39
39105;BME280;46464;51.154;13.812;2022-07-29T00:22:13;99509.28;;;13.22;63.87
39105;BME280;46464;51.154;13.812;2022-07-29T00:24:40;99506.94;;;13.16;64.39
39105;BME280;46464;51.154;13.812;2022-07-29T00:27:07;99501.53;;;13.16;64.10
39105;BME280;46464;51.154;13.812;2022-07-29T00:29:33;99495.28;;;13.15;63.43
39105;BME280;46464;51.154;13.812;2022-07-29T00:32:01;99490.03;;;13.12;63.48
39105;BME280;46464;51.154;13.812;2022-07-29T00:34:28;99477.59;;;13.10;63.86
39105;BME280;46464;51.154;13.812;2022-07-29T00:37:13;99484.13;;;13.05;64.41
39105;BME280;46464;51.154;13.812;2022-07-29T00:39:40;99484.22;;;13.04;64.44
39105;BME280;46464;51.154;13.812;2022-07-29T00:42:07;99482.47;;;13.03;64.39
39105;BME280;46464;51.154;13.812;2022-07-29T00:44:41;99475.53;;;12.99;64.76
39105;BME280;46464;51.154;13.812;2022-07-29T00:47:09;99478.22;;;12.99;64.71
39105;BME280;46464;51.154;13.812;2022-07-29T00:49:38;99475.53;;;12.99;64.54
39105;BME280;46464;51.154;13.812;2022-07-29T00:52:06;99474.53;;;13.00;65.05
39105;BME280;46464;51.154;13.812;2022-07-29T00:54:34;99473.22;;;12.91;65.72
39105;BME280;46464;51.154;13.812;2022-07-29T00:57:09;99470.09;;;12.83;65.76
39105;BME280;46464;51.154;13.812;2022-07-29T00:59:35;99468.78;;;12.74;65.89
39105;BME280;46464;51.154;13.812;2022-07-29T01:02:03;99465.31;;;12.72;65.85
39105;BME280;46464;51.154;13.812;2022-07-29T01:04:31;99456.59;;;12.67;67.09
39105;BME280;46464;51.154;13.812;2022-07-29T01:07:00;99451.38;;;12.64;66.60
39105;BME280;46464;51.154;13.812;2022-07-29T01:09:27;99450.50;;;12.63;66.51
39105;BME280;46464;51.154;13.812;2022-07-29T01:12:15;99452.31;;;12.63;66.03
39105;BME280;46464;51.154;13.812;2022-07-29T01:14:43;99454.34;;;12.59;66.33
39105;BME280;46464;51.154;13.812;2022-07-29T01:17:15;99448.22;;;12.55;67.49
39105;BME280;46464;51.154;13.812;2022-07-29T01:23:08;99445.94;;;12.48;67.57
39105;BME280;46464;51.154;13.812;2022-07-29T01:31:10;99430.03;;;12.43;68.53
39105;BME280;46464;51.154;13.812;2022-07-29T01:33:55;99426.72;;;12.38;68.49
39105;BME280;46464;51.154;13.812;2022-07-29T01:36:33;99426.03;;;12.34;68.17
39105;BME280;46464;51.154;13.812;2022-07-29T01:39:10;99424.41;;;12.30;68.22
39105;BME280;46464;51.154;13.812;2022-07-29T01:41:43;99419.22;;;12.27;68.20
39105;BME280;46464;51.154;13.812;2022-07-29T01:44:18;99419.22;;;12.27;68.37
39105;BME280;46464;51.154;13.812;2022-07-29T01:46:54;99416.44;;;12.29;68.12
39105;BME280;46464;51.154;13.812;2022-07-29T01:49:31;99417.38;;;12.27;68.38
39105;BME280;46464;51.154;13.812;2022-07-29T01:52:07;99416.53;;;12.27;68.45
39105;BME280;46464;51.154;13.812;2022-07-29T01:54:53;99417.63;;;12.23;68.81
39105;BME280;46464;51.154;13.812;2022-07-29T01:57:26;99425.03;;;12.19;69.00
39105;BME280;46464;51.154;13.812;2022-07-29T01:59:54;99419.69;;;12.18;69.43
39105;BME280;46464;51.154;13.812;2022-07-29T02:02:23;99422.47;;;12.16;69.62
39105;BME280;46464;51.154;13.812;2022-07-29T02:04:50;99421.44;;;12.19;69.55
39105;BME280;46464;51.154;13.812;2022-07-29T02:07:21;99422.16;;;12.22;69.45
39105;BME280;46464;51.154;13.812;2022-07-29T02:09:50;99418.31;;;12.26;69.14
39105;BME280;46464;51.154;13.812;2022-07-29T02:12:18;99421.66;;;12.32;69.24
39105;BME280;46464;51.154;13.812;2022-07-29T02:14:53;99417.47;;;12.26;71.05
39105;BME280;46464;51.154;13.812;2022-07-29T02:17:25;99420.97;;;12.28;70.53
39105;BME280;46464;51.154;13.812;2022-07-29T02:19:57;99417.28;;;12.29;69.97
39105;BME280;46464;51.154;13.812;2022-07-29T02:22:26;99423.56;;;12.30;69.89
39105;BME280;46464;51.154;13.812;2022-07-29T02:24:57;99419.94;;;12.31;69.94
39105;BME280;46464;51.154;13.812;2022-07-29T02:27:26;99412.69;;;12.31;70.14
39105;BME280;46464;51.154;13.812;2022-07-29T02:29:55;99408.13;;;12.33;70.48
39105;BME280;46464;51.154;13.812;2022-07-29T02:32:25;99406.19;;;12.35;69.84
39105;BME280;46464;51.154;13.812;2022-07-29T02:34:54;99408.88;;;12.35;70.59
39105;BME280;46464;51.154;13.812;2022-07-29T02:37:23;99406.88;;;12.39;69.77
39105;BME280;46464;51.154;13.812;2022-07-29T02:39:52;99398.28;;;12.32;70.70
39105;BME280;46464;51.154;13.812;2022-07-29T02:42:21;99409.91;;;12.33;70.67
39105;BME280;46464;51.154;13.812;2022-07-29T02:44:49;99413.50;;;12.33;70.54
39105;BME280;46464;51.154;13.812;2022-07-29T02:47:20;99417.22;;;12.31;70.57
39105;BME280;46464;51.154;13.812;2022-07-29T02:50:00;99415.31;;;12.33;70.34
39105;BME280;46464;51.154;13.812;2022-07-29T02:52:44;99419.75;;;12.34;70.61
39105;BME280;46464;51.154;13.812;2022-07-29T02:55:31;99415.94;;;12.38;70.36
39105;BME280;46464;51.154;13.812;2022-07-29T02:58:08;99407.88;;;12.38;70.97
39105;BME280;46464;51.154;13.812;2022-07-29T03:00:39;99406.03;;;12.38;71.18
39105;BME280;46464;51.154;13.812;2022-07-29T03:03:09;99411.41;;;12.38;70.79
39105;BME280;46464;51.154;13.812;2022-07-29T03:05:38;99415.06;;;12.37;71.03
39105;BME280;46464;51.154;13.812;2022-07-29T03:08:08;99414.06;;;12.22;71.62
39105;BME280;46464;51.154;13.812;2022-07-29T03:10:37;99403.28;;;12.22;71.63
39105;BME280;46464;51.154;13.812;2022-07-29T03:13:05;99408.88;;;12.19;71.94
39105;BME280;46464;51.154;13.812;2022-07-29T03:15:34;99415.19;;;12.18;71.86
39105;BME280;46464;51.154;13.812;2022-07-29T03:18:02;99414.25;;;12.19;72.00
39105;BME280;46464;51.154;13.812;2022-07-29T03:20:29;99409.00;;;12.16;72.26
39105;BME280;46464;51.154;13.812;2022-07-29T03:22:56;99416.13;;;12.17;72.45
39105;BME280;46464;51.154;13.812;2022-07-29T03:25:23;99410.66;;;12.19;71.80
39105;BME280;46464;51.154;13.812;2022-07-29T03:27:49;99414.91;;;12.23;71.69
39105;BME280;46464;51.154;13.812;2022-07-29T03:30:16;99413.75;;;12.29;71.83
39105;BME280;46464;51.154;13.812;2022-07-29T03:32:48;99402.88;;;12.30;71.71
39105;BME280;46464;51.154;13.812;2022-07-29T03:35:18;99401.78;;;12.34;71.18
39105;BME280;46464;51.154;13.812;2022-07-29T03:37:46;99403.44;;;12.37;70.93
39105;BME280;46464;51.154;13.812;2022-07-29T03:40:21;99404.19;;;12.39;71.36
39105;BME280;46464;51.154;13.812;2022-07-29T03:42:51;99405.94;;;12.40;71.32
39105;BME280;46464;51.154;13.812;2022-07-29T03:45:20;99401.34;;;12.42;71.28
39105;BME280;46464;51.154;13.812;2022-07-29T03:47:59;99403.00;;;12.45;71.16
39105;BME280;46464;51.154;13.812;2022-07-29T03:50:29;99398.81;;;12.39;72.02
39105;BME280;46464;51.154;13.812;2022-07-29T03:52:57;99396.06;;;12.40;72.00
39105;BME280;46464;51.154;13.812;2022-07-29T03:55:25;99395.78;;;12.45;71.35
39105;BME280;46464;51.154;13.812;2022-07-29T03:57:53;99395.88;;;12.43;72.17
39105;BME280;46464;51.154;13.812;2022-07-29T04:00:23;99395.72;;;12.47;71.87
39105;BME280;46464;51.154;13.812;2022-07-29T04:02:50;99386.75;;;12.46;73.07
39105;BME280;46464;51.154;13.812;2022-07-29T04:05:18;99393.88;;;12.47;72.44
39105;BME280;46464;51.154;13.812;2022-07-29T04:07:46;99386.75;;;12.46;72.23
39105;BME280;46464;51.154;13.812;2022-07-29T04:10:14;99394.75;;;12.48;72.63
39105;BME280;46464;51.154;13.812;2022-07-29T04:12:56;99395.63;;;12.48;72.09
39105;BME280;46464;51.154;13.812;2022-07-29T04:15:23;99396.75;;;12.44;72.98
39105;BME280;46464;51.154;13.812;2022-07-29T04:17:50;99398.31;;;12.48;72.23
39105;BME280;46464;51.154;13.812;2022-07-29T04:20:17;99403.63;;;12.50;72.77
39105;BME280;46464;51.154;13.812;2022-07-29T04:22:44;99406.84;;;12.56;72.14
39105;BME280;46464;51.154;13.812;2022-07-29T04:25:11;99409.19;;;12.63;72.16
39105;BME280;46464;51.154;13.812;2022-07-29T04:27:38;99402.59;;;12.68;72.45
39105;BME280;46464;51.154;13.812;2022-07-29T04:30:24;99409.22;;;12.79;72.26
39105;BME280;46464;51.154;13.812;2022-07-29T04:32:51;99407.66;;;12.90;72.36
39105;BME280;46464;51.154;13.812;2022-07-29T04:35:19;99399.56;;;13.06;72.36
39105;BME280;46464;51.154;13.812;2022-07-29T04:37:46;99396.44;;;13.14;72.41
39105;BME280;46464;51.154;13.812;2022-07-29T04:40:13;99398.78;;;13.20;72.22
39105;BME280;46464;51.154;13.812;2022-07-29T04:42:39;99395.56;;;13.30;71.74
39105;BME280;46464;51.154;13.812;2022-07-29T04:45:11;99399.47;;;13.40;71.81
39105;BME280;46464;51.154;13.812;2022-07-29T04:47:39;99407.72;;;13.53;71.21
39105;BME280;46464;51.154;13.812;2022-07-29T04:50:06;99409.63;;;13.67;71.22
39105;BME280;46464;51.154;13.812;2022-07-29T04:52:34;99397.19;;;13.79;70.83
39105;BME280;46464;51.154;13.812;2022-07-29T04:55:02;99400.78;;;13.94;70.40
39105;BME280;46464;51.154;13.812;2022-07-29T04:57:29;99403.81;;;14.03;70.66
39105;BME280;46464;51.154;13.812;2022-07-29T04:59:56;99397.53;;;14.17;70.89
39105;BME280;46464;51.154;13.812;2022-07-29T05:02:23;99388.88;;;14.27;70.87
39105;BME280;46464;51.154;13.812;2022-07-29T05:04:50;99392.56;;;14.40;70.92
39105;BME280;46464;51.154;13.812;2022-07-29T05:07:17;99387.34;;;14.51;70.25
39105;BME280;46464;51.154;13.812;2022-07-29T05:09:44;99388.47;;;14.62;69.54
39105;BME280;46464;51.154;13.812;2022-07-29T05:12:10;99395.75;;;14.76;70.10
39105;BME280;46464;51.154;13.812;2022-07-29T05:14:38;99394.94;;;14.88;69.53
39105;BME280;46464;51.154;13.812;2022-07-29T05:17:04;99394.25;;;14.99;68.60
39105;BME280;46464;51.154;13.812;2022-07-29T05:19:31;99380.59;;;15.15;67.75
39105;BME280;46464;51.154;13.812;2022-07-29T05:21:58;99383.88;;;15.33;66.63
39105;BME280;46464;51.154;13.812;2022-07-29T05:24:26;99375.94;;;15.44;66.10
39105;BME280;46464;51.154;13.812;2022-07-29T05:26:52;99376.63;;;15.61;65.44
39105;BME280;46464;51.154;13.812;2022-07-29T05:29:20;99386.50;;;15.75;65.52
39105;BME280;46464;51.154;13.812;2022-07-29T05:32:07;99389.84;;;15.93;64.81
39105;BME280;46464;51.154;13.812;2022-07-29T05:34:33;99388.13;;;16.18;64.53
39105;BME280;46464;51.154;13.812;2022-07-29T05:37:00;99382.34;;;16.61;63.30
39105;BME280;46464;51.154;13.812;2022-07-29T05:39:27;99385.56;;;17.16;62.08
39105;BME280;46464;51.154;13.812;2022-07-29T05:42:14;99385.25;;;17.81;59.75
39105;BME280;46464;51.154;13.812;2022-07-29T05:44:40;99388.38;;;18.46;58.74
39105;BME280;46464;51.154;13.812;2022-07-29T05:47:07;99385.00;;;19.22;56.19
39105;BME280;46464;51.154;13.812;2022-07-29T05:49:34;99387.56;;;20.21;54.58
39105;BME280;46464;51.154;13.812;2022-07-29T05:52:01;99384.91;;;21.02;51.62
39105;BME280;46464;51.154;13.812;2022-07-29T05:54:28;99386.00;;;21.50;50.66
39105;BME280;46464;51.154;13.812;2022-07-29T05:56:54;99385.47;;;21.76;48.64
39105;BME280;46464;51.154;13.812;2022-07-29T05:59:21;99385.72;;;21.34;49.76
39105;BME280;46464;51.154;13.812;2022-07-29T06:01:55;99388.53;;;21.03;50.49
39105;BME280;46464;51.154;13.812;2022-07-29T06:04:23;99383.84;;;20.53;51.39
39105;BME280;46464;51.154;13.812;2022-07-29T06:06:50;99386.06;;;20.16;52.72
39105;BME280;46464;51.154;13.812;2022-07-29T06:09:17;99378.81;;;19.84;54.01
39105;BME280;46464;51.154;13.812;2022-07-29T06:11:44;99383.69;;;19.70;54.34
39105;BME280;46464;51.154;13.812;2022-07-29T06:14:11;99383.88;;;19.57;54.61
39105;BME280;46464;51.154;13.812;2022-07-29T06:16:37;99387.78;;;19.43;54.92
39105;BME280;46464;51.154;13.812;2022-07-29T06:19:05;99392.56;;;19.50;55.24
39105;BME280;46464;51.154;13.812;2022-07-29T06:21:31;99396.06;;;19.52;55.16
39105;BME280;46464;51.154;13.812;2022-07-29T06:24:05;99389.25;;;19.47;55.53
39105;BME280;46464;51.154;13.812;2022-07-29T06:26:42;99400.41;;;19.44;55.16
39105;BME280;46464;51.154;13.812;2022-07-29T06:29:32;99400.66;;;19.41;55.78
39105;BME280;46464;51.154;13.812;2022-07-29T06:32:33;99394.91;;;19.55;57.93
39105;BME280;46464;51.154;13.812;2022-07-29T06:35:34;99397.03;;;19.51;58.17
39105;BME280;46464;51.154;13.812;2022-07-29T06:38:37;99392.44;;;19.52;59.00
39105;BME280;46464;51.154;13.812;2022-07-29T06:41:29;99397.66;;;19.55;58.35
39105;BME280;46464;51.154;13.812;2022-07-29T06:44:20;99405.31;;;19.61;58.75
39105;BME280;46464;51.154;13.812;2022-07-29T06:47:08;99394.03;;;19.66;57.77
39105;BME280;46464;51.154;13.812;2022-07-29T06:50:35;99391.50;;;19.74;57.29
39105;BME280;46464;51.154;13.812;2022-07-29T06:53:33;99394.94;;;19.88;56.29
39105;BME280;46464;51.154;13.812;2022-07-29T06:56:09;99398.47;;;19.99;56.11
39105;BME280;46464;51.154;13.812;2022-07-29T06:59:04;99395.78;;;20.09;55.00
39105;BME280;46464;51.154;13.812;2022-07-29T07:02:34;99409.38;;;20.21;54.58
39105;BME280;46464;51.154;13.812;2022-07-29T07:05:26;99404.97;;;20.29;54.03
39105;BME280;46464;51.154;13.812;2022-07-29T07:08:29;99409.63;;;20.39;54.30
39105;BME280;46464;51.154;13.812;2022-07-29T07:11:29;99414.88;;;20.52;55.77
39105;BME280;46464;51.154;13.812;2022-07-29T07:14:11;99409.53;;;20.71;54.90
39105;BME280;46464;51.154;13.812;2022-07-29T07:16:56;99408.31;;;20.85;53.54
39105;BME280;46464;51.154;13.812;2022-07-29T07:19:26;99414.66;;;20.95;53.68
39105;BME280;46464;51.154;13.812;2022-07-29T07:22:12;99422.16;;;21.03;53.34
39105;BME280;46464;51.154;13.812;2022-07-29T07:24:52;99409.09;;;21.07;52.02
39105;BME280;46464;51.154;13.812;2022-07-29T07:27:27;99411.00;;;21.16;51.81
39105;BME280;46464;51.154;13.812;2022-07-29T07:29:55;99403.97;;;21.33;51.82
39105;BME280;46464;51.154;13.812;2022-07-29T07:32:34;99400.69;;;21.49;51.09
39105;BME280;46464;51.154;13.812;2022-07-29T07:35:08;99406.03;;;21.60;50.99
39105;BME280;46464;51.154;13.812;2022-07-29T07:37:57;99403.91;;;21.74;49.72
39105;BME280;46464;51.154;13.812;2022-07-29T07:40:40;99403.75;;;21.75;49.25
39105;BME280;46464;51.154;13.812;2022-07-29T07:43:07;99401.88;;;21.86;48.98
39105;BME280;46464;51.154;13.812;2022-07-29T07:45:34;99395.69;;;21.93;49.52
39105;BME280;46464;51.154;13.812;2022-07-29T07:48:04;99399.84;;;22.07;49.56
39105;BME280;46464;51.154;13.812;2022-07-29T07:50:31;99389.03;;;22.16;49.02
39105;BME280;46464;51.154;13.812;2022-07-29T07:52:58;99394.66;;;22.24;48.23
39105;BME280;46464;51.154;13.812;2022-07-29T07:55:26;99391.19;;;22.42;48.52
39105;BME280;46464;51.154;13.812;2022-07-29T07:57:54;99388.28;;;22.81;48.04
39105;BME280;46464;51.154;13.812;2022-07-29T08:00:21;99397.28;;;23.01;47.74
39105;BME280;46464;51.154;13.812;2022-07-29T08:02:50;99386.25;;;23.11;46.36
39105;BME280;46464;51.154;13.812;2022-07-29T08:05:21;99375.81;;;23.24;47.25
39105;BME280;46464;51.154;13.812;2022-07-29T08:07:48;99382.19;;;23.43;47.45
39105;BME280;46464;51.154;13.812;2022-07-29T08:10:18;99379.53;;;23.51;46.38
39105;BME280;46464;51.154;13.812;2022-07-29T08:13:25;99375.38;;;23.65;45.42
39105;BME280;46464;51.154;13.812;2022-07-29T08:16:10;99378.13;;;23.65;44.95
39105;BME280;46464;51.154;13.812;2022-07-29T08:18:41;99377.03;;;23.76;45.07
39105;BME280;46464;51.154;13.812;2022-07-29T08:21:14;99376.22;;;23.83;44.28
39105;BME280;46464;51.154;13.812;2022-07-29T08:23:43;99369.50;;;23.96;43.36
39105;BME280;46464;51.154;13.812;2022-07-29T08:26:25;99366.75;;;24.14;42.76
39105;BME280;46464;51.154;13.812;2022-07-29T08:28:58;99364.56;;;24.26;42.25
39105;BME280;46464;51.154;13.812;2022-07-29T08:32:04;99362.09;;;24.41;41.72
39105;BME280;46464;51.154;13.812;2022-07-29T08:34:31;99367.63;;;24.49;41.87
39105;BME280;46464;51.154;13.812;2022-07-29T08:37:07;99364.44;;;24.62;42.02
39105;BME280;46464;51.154;13.812;2022-07-29T08:40:11;99368.16;;;24.79;40.65
39105;BME280;46464;51.154;13.812;2022-07-29T08:42:41;99360.50;;;24.91;40.99
39105;BME280;46464;51.154;13.812;2022-07-29T08:45:08;99359.84;;;25.05;40.98
39105;BME280;46464;51.154;13.812;2022-07-29T08:47:35;99362.66;;;25.30;40.51
39105;BME280;46464;51.154;13.812;2022-07-29T08:50:25;99366.00;;;25.50;39.92
39105;BME280;46464;51.154;13.812;2022-07-29T08:52:59;99365.53;;;25.71;39.07
39105;BME280;46464;51.154;13.812;2022-07-29T08:55:49;99371.03;;;25.88;38.64
39105;BME280;46464;51.154;13.812;2022-07-29T08:58:18;99362.81;;;26.13;38.05
39105;BME280;46464;51.154;13.812;2022-07-29T09:00:51;99369.44;;;26.51;38.08
39105;BME280;46464;51.154;13.812;2022-07-29T09:07:28;99355.59;;;27.16;36.49
39105;BME280;46464;51.154;13.812;2022-07-29T09:10:12;99350.84;;;27.64;36.93
39105;BME280;46464;51.154;13.812;2022-07-29T09:12:46;99343.97;;;28.22;35.81
39105;BME280;46464;51.154;13.812;2022-07-29T09:15:17;99344.50;;;28.70;34.69
39105;BME280;46464;51.154;13.812;2022-07-29T09:17:45;99340.03;;;28.84;32.52
39105;BME280;46464;51.154;13.812;2022-07-29T09:20:17;99336.78;;;28.95;32.21
39105;BME280;46464;51.154;13.812;2022-07-29T09:22:45;99335.59;;;29.05;32.63
39105;BME280;46464;51.154;13.812;2022-07-29T09:28:16;99331.09;;;29.34;31.49
39105;BME280;46464;51.154;13.812;2022-07-29T09:30:57;99326.22;;;29.36;31.30
39105;BME280;46464;51.154;13.812;2022-07-29T09:33:37;99325.25;;;29.28;31.13
39105;BME280;46464;51.154;13.812;2022-07-29T09:36:11;99326.16;;;29.29;31.23
39105;BME280;46464;51.154;13.812;2022-07-29T09:38:38;99318.50;;;29.31;31.54
39105;BME280;46464;51.154;13.812;2022-07-29T09:45:29;99314.44;;;29.12;30.13
39105;BME280;46464;51.154;13.812;2022-07-29T09:48:16;99315.03;;;28.92;31.11
39105;BME280;46464;51.154;13.812;2022-07-29T09:50:45;99311.53;;;28.83;31.37
39105;BME280;46464;51.154;13.812;2022-07-29T09:53:36;99317.81;;;28.77;30.59
39105;BME280;46464;51.154;13.812;2022-07-29T09:56:14;99318.03;;;28.76;32.01
39105;BME280;46464;51.154;13.812;2022-07-29T09:58:40;99327.16;;;28.76;31.12
39105;BME280;46464;51.154;13.812;2022-07-29T10:01:07;99326.25;;;28.69;31.81
39105;BME280;46464;51.154;13.812;2022-07-29T10:03:51;99324.78;;;28.73;31.78
39105;BME280;46464;51.154;13.812;2022-07-29T10:06:32;99318.59;;;28.71;31.84
39105;BME280;46464;51.154;13.812;2022-07-29T10:09:29;99321.53;;;28.85;32.23
39105;BME280;46464;51.154;13.812;2022-07-29T10:15:51;99319.53;;;28.93;31.46
39105;BME280;46464;51.154;13.812;2022-07-29T10:18:19;99318.72;;;29.14;31.95
39105;BME280;46464;51.154;13.812;2022-07-29T10:20:46;99316.47;;;29.25;31.74
39105;BME280;46464;51.154;13.812;2022-07-29T10:23:14;99319.59;;;29.15;30.64
39105;BME280;46464;51.154;13.812;2022-07-29T10:25:41;99326.28;;;28.91;31.22
39105;BME280;46464;51.154;13.812;2022-07-29T10:28:11;99327.41;;;28.66;31.98
39105;BME280;46464;51.154;13.812;2022-07-29T10:30:43;99318.84;;;28.61;32.04
39105;BME280;46464;51.154;13.812;2022-07-29T10:52:58;99306.69;;;28.71;31.50
39105;BME280;46464;51.154;13.812;2022-07-29T11:00:49;99309.53;;;28.77;31.20
39105;BME280;46464;51.154;13.812;2022-07-29T11:03:45;99298.25;;;28.64;32.05
39105;BME280;46464;51.154;13.812;2022-07-29T11:06:18;99303.44;;;28.52;32.18
39105;BME280;46464;51.154;13.812;2022-07-29T11:09:15;99296.47;;;28.56;31.66
39105;BME280;46464;51.154;13.812;2022-07-29T11:11:42;99291.59;;;28.58;32.37
39105;BME280;46464;51.154;13.812;2022-07-29T11:14:18;99291.88;;;28.63;32.20
39105;BME280;46464;51.154;13.812;2022-07-29T11:17:02;99289.31;;;28.62;31.77
39105;BME280;46464;51.154;13.812;2022-07-29T11:19:33;99292.38;;;28.67;32.21
39105;BME280;46464;51.154;13.812;2022-07-29T11:22:30;99291.91;;;28.78;32.20
39105;BME280;46464;51.154;13.812;2022-07-29T11:27:42;99292.75;;;28.94;32.04
39105;BME280;46464;51.154;13.812;2022-07-29T11:30:11;99292.28;;;29.12;31.56
39105;BME280;46464;51.154;13.812;2022-07-29T11:32:42;99293.41;;;29.33;30.87
39105;BME280;46464;51.154;13.812;2022-07-29T11:35:14;99282.97;;;29.35;30.42
39105;BME280;46464;51.154;13.812;2022-07-29T11:37:45;99288.28;;;29.51;30.27
39105;BME280;46464;51.154;13.812;2022-07-29T11:40:32;99276.97;;;29.74;30.06
39105;BME280;46464;51.154;13.812;2022-07-29T11:42:59;99280.03;;;29.79;30.33
39105;BME280;46464;51.154;13.812;2022-07-29T11:45:26;99278.44;;;29.92;29.94
39105;BME280;46464;51.154;13.812;2022-07-29T11:48:15;99277.19;;;29.73;30.00
39105;BME280;46464;51.154;13.812;2022-07-29T11:50:58;99281.88;;;29.51;30.31
39105;BME280;46464;51.154;13.812;2022-07-29T11:53:25;99273.81;;;29.77;31.33
39105;BME280;46464;51.154;13.812;2022-07-29T11:55:58;99282.59;;;30.38;30.66
39105;BME280;46464;51.154;13.812;2022-07-29T11:58:25;99268.22;;;30.56;29.85
39105;BME280;46464;51.154;13.812;2022-07-29T12:00:52;99273.16;;;30.67;29.21
39105;BME280;46464;51.154;13.812;2022-07-29T12:03:26;99273.75;;;30.56;29.07
39105;BME280;46464;51.154;13.812;2022-07-29T12:06:01;99268.53;;;30.39;29.40
39105;BME280;46464;51.154;13.812;2022-07-29T12:08:27;99279.13;;;30.29;30.17
39105;BME280;46464;51.154;13.812;2022-07-29T12:10:55;99277.41;;;30.28;29.39
39105;BME280;46464;51.154;13.812;2022-07-29T12:13:22;99277.53;;;30.13;29.34
39105;BME280;46464;51.154;13.812;2022-07-29T12:16:03;99266.25;;;30.15;30.43
39105;BME280;46464;51.154;13.812;2022-07-29T12:18:30;99267.06;;;30.08;30.29
39105;BME280;46464;51.154;13.812;2022-07-29T12:21:01;99263.03;;;30.11;30.06
39105;BME280;46464;51.154;13.812;2022-07-29T12:23:32;99259.75;;;30.01;30.87
39105;BME280;46464;51.154;13.812;2022-07-29T12:26:05;99270.22;;;30.05;30.17
39105;BME280;46464;51.154;13.812;2022-07-29T12:28:46;99266.59;;;29.83;30.11
39105;BME280;46464;51.154;13.812;2022-07-29T12:31:22;99262.25;;;29.67;30.90
39105;BME280;46464;51.154;13.812;2022-07-29T12:34:13;99255.38;;;29.63;30.90
39105;BME280;46464;51.154;13.812;2022-07-29T12:36:42;99247.78;;;29.72;31.73
39105;BME280;46464;51.154;13.812;2022-07-29T12:39:09;99254.44;;;29.77;31.27
39105;BME280;46464;51.154;13.812;2022-07-29T12:41:37;99251.91;;;29.83;30.95
39105;BME280;46464;51.154;13.812;2022-07-29T12:44:09;99248.75;;;29.86;30.73
39105;BME280;46464;51.154;13.812;2022-07-29T12:46:36;99257.66;;;29.81;30.56
39105;BME280;46464;51.154;13.812;2022-07-29T12:49:05;99247.53;;;29.67;30.76
39105;BME280;46464;51.154;13.812;2022-07-29T12:51:37;99254.91;;;29.59;31.41
39105;BME280;46464;51.154;13.812;2022-07-29T12:54:11;99254.44;;;29.56;30.94
39105;BME280;46464;51.154;13.812;2022-07-29T12:56:40;99244.00;;;29.51;31.20
39105;BME280;46464;51.154;13.812;2022-07-29T13:01:39;99242.25;;;29.28;32.07
39105;BME280;46464;51.154;13.812;2022-07-29T13:04:05;99241.31;;;29.36;31.91
39105;BME280;46464;51.154;13.812;2022-07-29T13:06:42;99234.84;;;29.29;31.37
39105;BME280;46464;51.154;13.812;2022-07-29T13:09:20;99235.06;;;29.12;31.60
39105;BME280;46464;51.154;13.812;2022-07-29T13:11:52;99239.84;;;29.04;32.15
39105;BME280;46464;51.154;13.812;2022-07-29T13:19:34;99234.88;;;29.14;32.01
39105;BME280;46464;51.154;13.812;2022-07-29T13:22:02;99238.97;;;29.18;32.31
39105;BME280;46464;51.154;13.812;2022-07-29T13:24:29;99234.16;;;29.27;32.10
39105;BME280;46464;51.154;13.812;2022-07-29T13:26:57;99224.72;;;29.36;32.14
39105;BME280;46464;51.154;13.812;2022-07-29T13:29:32;99232.47;;;29.48;31.56
39105;BME280;46464;51.154;13.812;2022-07-29T13:32:02;99225.88;;;29.49;31.71
39105;BME280;46464;51.154;13.812;2022-07-29T13:34:28;99230.06;;;29.66;31.28
39105;BME280;46464;51.154;13.812;2022-07-29T13:36:55;99229.28;;;29.51;31.85
39105;BME280;46464;51.154;13.812;2022-07-29T13:39:21;99229.53;;;29.56;31.12
39105;BME280;46464;51.154;13.812;2022-07-29T13:41:48;99224.91;;;29.63;30.71
39105;BME280;46464;51.154;13.812;2022-07-29T13:44:16;99220.00;;;29.58;30.63
39105;BME280;46464;51.154;13.812;2022-07-29T13:46:43;99214.00;;;29.55;31.42
39105;BME280;46464;51.154;13.812;2022-07-29T13:49:09;99208.03;;;29.79;31.39
39105;BME280;46464;51.154;13.812;2022-07-29T13:51:38;99204.63;;;30.13;31.02
39105;BME280;46464;51.154;13.812;2022-07-29T13:54:07;99207.56;;;30.39;30.05
39105;BME280;46464;51.154;13.812;2022-07-29T13:56:34;99214.06;;;30.25;30.32
39105;BME280;46464;51.154;13.812;2022-07-29T13:59:00;99206.63;;;30.25;30.37
39105;BME280;46464;51.154;13.812;2022-07-29T14:01:27;99200.47;;;30.30;29.61
39105;BME280;46464;51.154;13.812;2022-07-29T14:03:56;99210.09;;;30.34;29.76
39105;BME280;46464;51.154;13.812;2022-07-29T14:06:23;99208.28;;;30.13;30.19
39105;BME280;46464;51.154;13.812;2022-07-29T14:08:50;99201.16;;;30.04;30.19
39105;BME280;46464;51.154;13.812;2022-07-29T14:11:17;99201.91;;;30.19;30.45
39105;BME280;46464;51.154;13.812;2022-07-29T14:13:44;99197.94;;;30.35;30.07
39105;BME280;46464;51.154;13.812;2022-07-29T14:16:11;99196.47;;;30.39;29.91
39105;BME280;46464;51.154;13.812;2022-07-29T14:18:37;99190.41;;;30.64;29.71
39105;BME280;46464;51.154;13.812;2022-07-29T14:21:04;99193.06;;;30.93;28.93